Sonora, TX

9:11 AM CDT on September 25, 2016 (GMT -0500)
Sonora

Weather History for KSOA - December, 2012

Change the Weather History Date:

Saturday, December 8, 2012

  Actual Average (KOZA) Record (KOZA)
Temperature  
Mean Temperature 56 °F -  
Max Temperature 73 °F 62 °F 78 °F (2012)
Min Temperature 39 °F 33 °F 21 °F (2013)
Degree Days  
Heating Degree Days 9    
Growing Degree Days 6 (Base 50)    
Moisture  
Dew Point 49 °F    
Average Humidity 82    
Maximum Humidity 100    
Minimum Humidity 43    
Precipitation  
Precipitation 0.00 in - - ()
Sea Level Pressure  
Sea Level Pressure 29.92 in    
Wind  
Wind Speed 2 mph (South)    
Max Wind Speed 10 mph    
Max Gust Speed -    
Visibility 7 miles    
Events Fog    
Averages and records for this station are not official NWS values.
T = Trace of Precipitation, MM = Missing Value Source: NWS Daily Summary

Daily Weather History Graph

Daily Weather History Graph

Search for Another Location

Airport or City:

Trip Planner

Search our weather history database for the weather conditions in past years. The results will help you decide how hot, cold, wet, or windy it might be!

Date:

Astronomy

Dec. 08, 2012 Rise Set
Actual Time 7:27 AM CST 5:41 PM CST
Civil Twilight 7:01 AM CST 6:08 PM CST
Nautical Twilight 6:31 AM CST 6:37 PM CST
Astronomical Twilight 6:02 AM CST 7:07 PM CST
Moon 2:11 AM CST (12/8) 1:57 PM CST (12/8)
Length of Visible Light 11h 06m
Length of Day
10h 13m
Waning Crescent, 28% of the Moon is Illuminated
Dec 8
Waning Crescent
Dec 13
New
Dec 19
First Quarter
Dec 28
Full
Jan 4
Last Quarter

Hourly Weather History & Observations

Time (CST) Temp. Dew Point Humidity Pressure Visibility Wind Dir Wind Speed Gust Speed Precip Events Conditions
12:15 AM 44.6 °F 42.8 °F 93% 29.93 in 9.0 mi Calm Calm - N/A   Clear
12:35 AM 44.6 °F 41.0 °F 87% 29.92 in 10.0 mi Calm Calm - N/A   Clear
12:55 AM 42.8 °F 39.2 °F 87% 29.92 in 10.0 mi Calm Calm - N/A   Clear
1:15 AM 42.8 °F 39.2 °F 87% 29.91 in 10.0 mi Calm Calm - N/A   Clear
1:35 AM 42.8 °F 39.2 °F 87% 29.91 in 9.0 mi Calm Calm - N/A   Clear
1:55 AM 42.8 °F 39.2 °F 87% 29.91 in 10.0 mi Calm Calm - N/A   Clear
2:15 AM 41.0 °F 37.4 °F 87% 29.91 in 10.0 mi Calm Calm - N/A   Clear
2:35 AM 41.0 °F 37.4 °F 87% 29.91 in 10.0 mi Calm Calm - N/A   Clear
2:55 AM 41.0 °F 37.4 °F 87% 29.91 in 10.0 mi Calm Calm - N/A   Clear
3:15 AM 41.0 °F 37.4 °F 87% 29.91 in 9.0 mi Calm Calm - N/A   Clear
3:35 AM 39.2 °F 37.4 °F 93% 29.91 in 10.0 mi Calm Calm - N/A   Clear
3:55 AM 39.2 °F 37.4 °F 93% 29.91 in 10.0 mi Calm Calm - N/A   Mostly Cloudy
4:15 AM 39.2 °F 37.4 °F 93% 29.91 in 8.0 mi Calm Calm - N/A   Overcast
4:35 AM 41.0 °F 39.2 °F 93% 29.91 in 1.2 mi Calm Calm - N/A   Overcast
4:55 AM 41.0 °F 39.2 °F 93% 29.92 in 0.2 mi Calm Calm - N/A Fog Fog
5:15 AM 42.8 °F 41.0 °F 93% 29.92 in 0.2 mi Calm Calm - N/A Fog Fog
5:35 AM 42.8 °F 42.8 °F 100% 29.92 in 0.2 mi Calm Calm - N/A Fog Fog
5:55 AM 42.8 °F 42.8 °F 100% 29.93 in 0.2 mi Calm Calm - N/A Fog Fog
6:15 AM 44.6 °F 44.6 °F 100% 29.94 in 0.2 mi Calm Calm - N/A Fog Fog
6:35 AM 44.6 °F 44.6 °F 100% 29.94 in 0.2 mi Calm Calm - N/A Fog Fog
6:55 AM 44.6 °F 44.6 °F 100% 29.95 in 0.2 mi Calm Calm - N/A Fog Fog
7:15 AM 44.6 °F 44.6 °F 100% 29.95 in 0.2 mi Calm Calm - N/A Fog Fog
7:35 AM 44.6 °F 44.6 °F 100% 29.96 in 0.2 mi Calm Calm - N/A Fog Fog
7:55 AM 46.4 °F 46.4 °F 100% 29.96 in 0.2 mi Calm Calm - N/A Fog Fog
8:15 AM 46.4 °F 46.4 °F 100% 29.96 in 0.2 mi Calm Calm - N/A Fog Fog
8:35 AM 46.4 °F 46.4 °F 100% 29.96 in 0.2 mi Calm Calm - N/A Fog Fog
8:55 AM 48.2 °F 48.2 °F 100% 29.96 in 0.2 mi Calm Calm - N/A Fog Fog
9:15 AM 48.2 °F 48.2 °F 100% 29.97 in 0.2 mi Calm Calm - N/A Fog Fog
9:35 AM 50.0 °F 50.0 °F 100% 29.97 in 0.2 mi Calm Calm - N/A Fog Fog
9:55 AM 51.8 °F 51.8 °F 100% 29.97 in 0.2 mi Calm Calm - N/A Fog Fog
10:15 AM 51.8 °F 51.8 °F 100% 29.98 in 0.2 mi Calm Calm - N/A Fog Fog
10:35 AM 53.6 °F 53.6 °F 100% 29.98 in 0.2 mi South 3.5 mph - N/A Fog Fog
10:55 AM 53.6 °F 53.6 °F 100% 29.98 in 0.8 mi Calm Calm - N/A   Overcast
11:15 AM 55.4 °F 55.4 °F 100% 29.98 in 6.0 mi Calm Calm - N/A   Mostly Cloudy
11:35 AM 57.2 °F 57.2 °F 100% 29.97 in 8.0 mi SSW 8.1 mph - N/A   Partly Cloudy
11:55 AM 62.6 °F 62.6 °F 100% 29.96 in 9.0 mi South 5.8 mph - N/A   Clear
12:15 PM 64.4 °F 57.2 °F 77% 29.95 in 9.0 mi SSW 6.9 mph - N/A   Clear
12:35 PM 66.2 °F 57.2 °F 73% 29.94 in 10.0 mi SSW 8.1 mph - N/A   Clear
12:55 PM 66.2 °F 57.2 °F 73% 29.93 in 10.0 mi South 6.9 mph - N/A   Clear
1:15 PM 68.0 °F 57.2 °F 68% 29.91 in 10.0 mi South 9.2 mph - N/A   Clear
1:35 PM 69.8 °F 57.2 °F 64% 29.90 in 9.0 mi South 9.2 mph - N/A   Clear
1:55 PM 69.8 °F 55.4 °F 60% 29.89 in 10.0 mi South 9.2 mph - N/A   Clear
2:15 PM 69.8 °F 55.4 °F 60% 29.89 in 10.0 mi SSE 10.4 mph - N/A   Clear
2:35 PM 71.6 °F 53.6 °F 53% 29.88 in 10.0 mi South 9.2 mph - N/A   Clear
2:55 PM 71.6 °F 53.6 °F 53% 29.88 in 10.0 mi South 9.2 mph - N/A   Clear
3:15 PM 71.6 °F 51.8 °F 50% 29.88 in 10.0 mi South 8.1 mph - N/A   Clear
3:35 PM 71.6 °F 51.8 °F 50% 29.88 in 10.0 mi SSW 5.8 mph - N/A   Clear
3:55 PM 73.4 °F 50.0 °F 44% 29.87 in 10.0 mi South 9.2 mph - N/A   Clear
4:15 PM 71.6 °F 50.0 °F 46% 29.87 in 10.0 mi South 6.9 mph - N/A   Clear
4:35 PM 71.6 °F 48.2 °F 43% 29.86 in 10.0 mi South 5.8 mph - N/A   Clear
4:55 PM 71.6 °F 48.2 °F 43% 29.87 in 10.0 mi SSW 5.8 mph - N/A   Clear
5:15 PM 69.8 °F 46.4 °F 43% 29.87 in 10.0 mi Calm Calm - N/A   Clear
5:35 PM 68.0 °F 46.4 °F 46% 29.87 in 10.0 mi Calm Calm - N/A   Clear
5:55 PM 66.2 °F 46.4 °F 49% 29.87 in 10.0 mi Calm Calm - N/A   Clear
6:15 PM 64.4 °F 46.4 °F 52% 29.87 in 10.0 mi Calm Calm - N/A   Clear
6:35 PM 64.4 °F 48.2 °F 56% 29.88 in 10.0 mi Calm Calm - N/A   Clear
6:55 PM 64.4 °F 50.0 °F 59% 29.88 in 10.0 mi Calm Calm - N/A   Clear
7:15 PM 64.4 °F 53.6 °F 68% 29.89 in 10.0 mi South 4.6 mph - N/A   Clear
7:35 PM 62.6 °F 53.6 °F 72% 29.89 in 10.0 mi Calm Calm - N/A   Clear
7:55 PM 60.8 °F 53.6 °F 77% 29.90 in 10.0 mi SSW 4.6 mph - N/A   Clear
8:15 PM 60.8 °F 55.4 °F 82% 29.89 in 10.0 mi SSW 4.6 mph - N/A   Clear
8:35 PM 60.8 °F 55.4 °F 82% 29.90 in 9.0 mi SSW 3.5 mph - N/A   Clear
8:55 PM 59.0 °F 55.4 °F 88% 29.90 in 8.0 mi South 4.6 mph - N/A   Clear
9:15 PM 60.8 °F 55.4 °F 82% 29.90 in 8.0 mi South 4.6 mph - N/A   Clear
9:35 PM 59.0 °F 55.4 °F 88% 29.91 in 7.0 mi SSW 3.5 mph - N/A   Clear
9:55 PM 59.0 °F 55.4 °F 88% 29.91 in 7.0 mi Calm Calm - N/A   Clear
10:35 PM 59.0 °F 57.2 °F 94% 29.92 in 5.0 mi Calm Calm - N/A   Clear
11:15 PM 57.2 °F 55.4 °F 94% 29.92 in 5.0 mi Calm Calm - N/A   Clear
11:35 PM 57.2 °F 55.4 °F 94% 29.93 in 5.0 mi Calm Calm - N/A   Clear
11:55 PM 55.4 °F 55.4 °F 100% 29.92 in 4.0 mi Calm Calm - N/A   Clear